Time;durP1;ratioP1;P1;durP2;ratioP2;P2;SDS_P1;SDS_P2;PMS_P1;PMS_P2;Temp;Humidity;BMP_temperature;BMP_pressure;BME280_temperature;BME280_humidity;BME280_pressure;Samples;Min_cycle;Max_cycle;Signal;HPM_P1;HPM_P2
2022/04/27 04:01:08;;;;;;;8.95;6.68;;;7.60;99.90;;;;;;5639666;23;20246;-69
2022/04/27 04:03:35;;;;;;;6.95;5.80;;;7.60;99.90;;;;;;4992635;28;20219;-68
2022/04/27 04:06:02;;;;;;;6.53;5.38;;;7.50;99.90;;;;;;4992928;28;20215;-69
2022/04/27 04:08:28;;;;;;;6.43;5.32;;;7.50;99.90;;;;;;4992859;28;20656;-69
2022/04/27 04:10:55;;;;;;;7.80;6.22;;;7.50;99.90;;;;;;4990171;28;20547;-69
2022/04/27 04:13:22;;;;;;;6.90;6.30;;;7.50;99.90;;;;;;4992938;28;20572;-69
2022/04/27 04:15:49;;;;;;;7.10;5.18;;;7.50;99.90;;;;;;4993358;28;20208;-69
2022/04/27 04:18:17;;;;;;;5.80;5.20;;;7.50;99.90;;;;;;4994420;28;20215;-69
2022/04/27 04:20:45;;;;;;;8.35;4.82;;;7.60;99.90;;;;;;4994600;28;20227;-68
2022/04/27 04:23:11;;;;;;;6.00;5.05;;;7.60;99.90;;;;;;4993392;28;20297;-68
2022/04/27 04:28:31;;;;;;;6.47;5.85;;;7.60;99.90;;;;;;4992697;28;20321;-68
2022/04/27 04:30:59;;;;;;;7.63;5.45;;;7.60;99.90;;;;;;4991447;28;20230;-69
2022/04/27 04:33:27;;;;;;;5.70;4.95;;;7.60;99.90;;;;;;4992261;28;20270;-70
2022/04/27 04:35:53;;;;;;;6.38;5.60;;;7.70;99.90;;;;;;4992611;28;20215;-69
2022/04/27 04:38:20;;;;;;;10.88;6.40;;;7.70;99.90;;;;;;4992597;28;20204;-69
2022/04/27 04:40:47;;;;;;;11.15;5.53;;;7.70;99.90;;;;;;4991769;28;20437;-68
2022/04/27 04:43:14;;;;;;;8.73;5.32;;;7.80;99.90;;;;;;4992112;28;20247;-69
2022/04/27 04:45:41;;;;;;;7.18;6.57;;;7.80;99.90;;;;;;4992222;28;20591;-68
2022/04/27 04:48:09;;;;;;;6.40;5.82;;;7.80;99.90;;;;;;4991641;28;20231;-69
2022/04/27 04:50:37;;;;;;;6.30;5.18;;;7.90;99.90;;;;;;4991847;28;20231;-69
2022/04/27 04:53:04;;;;;;;5.28;4.78;;;7.90;99.90;;;;;;4992067;28;20254;-69
2022/04/27 04:55:31;;;;;;;6.50;5.80;;;7.90;99.90;;;;;;4992180;28;20203;-69
2022/04/27 04:57:58;;;;;;;6.63;4.90;;;8.00;99.90;;;;;;4991907;28;20211;-69
2022/04/27 05:00:25;;;;;;;11.02;5.05;;;8.10;99.90;;;;;;4986297;28;20216;-67
2022/04/27 05:02:52;;;;;;;6.22;5.40;;;8.10;99.90;;;;;;4991033;28;20204;-68
2022/04/27 05:05:18;;;;;;;5.85;5.32;;;8.20;99.90;;;;;;4992180;28;20219;-68
2022/04/27 05:07:46;;;;;;;6.10;5.60;;;8.30;99.90;;;;;;4991989;28;20228;-69
2022/04/27 05:10:13;;;;;;;8.70;5.28;;;8.40;99.90;;;;;;4991538;28;20212;-68
2022/04/27 05:12:40;;;;;;;6.82;5.65;;;8.60;99.90;;;;;;4991716;28;20212;-67
2022/04/27 05:15:08;;;;;;;5.40;4.90;;;8.80;99.90;;;;;;4992114;28;20207;-69
2022/04/27 05:17:35;;;;;;;6.85;4.90;;;9.00;99.90;;;;;;4991066;28;20688;-68
2022/04/27 05:20:02;;;;;;;6.93;5.32;;;9.00;99.90;;;;;;4991396;28;20625;-68
2022/04/27 05:22:34;;;;;;;6.55;5.03;;;9.00;99.90;;;;;;4991772;28;20235;-69
2022/04/27 05:25:04;;;;;;;5.20;4.72;;;9.00;99.90;;;;;;4991814;28;20672;-69
2022/04/27 05:27:31;;;;;;;8.05;4.70;;;9.10;99.90;;;;;;4991423;28;20613;-68
2022/04/27 05:32:43;;;;;;;5.80;5.35;;;8.90;99.90;;;;;;4990733;28;20239;-69
2022/04/27 05:35:10;;;;;;;10.75;5.05;;;9.00;99.90;;;;;;4984244;28;20203;-68
2022/04/27 05:37:37;;;;;;;5.63;4.75;;;9.00;99.90;;;;;;4991237;28;20246;-68
2022/04/27 05:40:06;;;;;;;5.85;5.07;;;9.10;99.90;;;;;;4990738;28;20226;-68
2022/04/27 05:42:33;;;;;;;5.28;4.78;;;9.10;99.90;;;;;;4991392;28;20227;-69
2022/04/27 05:45:00;;;;;;;7.70;5.88;;;9.20;99.90;;;;;;4991537;28;20208;-68
2022/04/27 05:47:27;;;;;;;7.85;5.10;;;9.20;99.90;;;;;;4990751;28;20545;-68
2022/04/27 05:49:53;;;;;;;7.43;5.57;;;9.30;99.90;;;;;;4990859;28;20326;-68
2022/04/27 05:52:21;;;;;;;8.25;4.93;;;9.40;99.90;;;;;;4991086;28;20234;-67
2022/04/27 05:54:47;;;;;;;5.50;5.00;;;9.50;99.90;;;;;;4994365;28;20246;-68
2022/04/27 05:57:16;;;;;;;5.30;4.80;;;9.50;99.90;;;;;;4997975;28;20218;-68
2022/04/27 05:59:43;;;;;;;10.77;5.53;;;9.60;99.90;;;;;;4997642;28;20208;-67
2022/04/27 06:02:10;;;;;;;7.05;5.40;;;9.80;99.90;;;;;;4996755;28;20608;-68
2022/04/27 06:04:36;;;;;;;8.30;6.32;;;9.80;99.90;;;;;;4997996;28;20222;-67
2022/04/27 06:07:04;;;;;;;7.18;5.65;;;9.90;99.90;;;;;;4997410;28;20230;-67
2022/04/27 06:09:31;;;;;;;6.00;5.28;;;10.00;99.90;;;;;;4995065;28;20231;-69
2022/04/27 06:11:57;;;;;;;5.70;5.30;;;10.70;99.90;;;;;;4997181;28;20731;-68
2022/04/27 06:14:25;;;;;;;6.20;4.83;;;11.30;99.90;;;;;;4997598;28;20498;-68
2022/04/27 06:16:52;;;;;;;6.40;4.30;;;12.00;99.90;;;;;;4997252;28;20513;-69
2022/04/27 06:19:19;;;;;;;5.43;4.70;;;12.80;99.90;;;;;;4997426;28;20466;-67
2022/04/27 06:21:45;;;;;;;5.53;5.13;;;13.00;99.90;;;;;;4996779;28;20490;-67
2022/04/27 06:24:12;;;;;;;5.33;4.43;;;13.40;99.90;;;;;;4997726;28;20513;-67
2022/04/27 06:26:39;;;;;;;5.00;4.60;;;14.10;99.90;;;;;;4997940;28;20560;-67
2022/04/27 06:29:06;;;;;;;5.10;4.80;;;14.60;99.90;;;;;;4997347;28;20489;-66
2022/04/27 06:31:34;;;;;;;4.93;4.73;;;14.70;99.90;;;;;;4996468;28;20513;-67
2022/04/27 06:34:00;;;;;;;4.93;4.60;;;15.20;99.90;;;;;;4997660;28;20463;-68
2022/04/27 06:36:27;;;;;;;4.90;4.60;;;15.60;99.90;;;;;;4998748;28;20798;-67
2022/04/27 06:38:54;;;;;;;5.13;4.70;;;15.90;99.90;;;;;;4998967;28;20470;-67
2022/04/27 06:41:20;;;;;;;5.93;4.70;;;16.10;99.90;;;;;;4997190;28;20500;-68
2022/04/27 06:43:47;;;;;;;4.67;4.33;;;15.90;99.90;;;;;;4997440;28;20538;-67
2022/04/27 06:46:14;;;;;;;5.23;4.70;;;16.10;99.90;;;;;;4997446;28;20482;-67
2022/04/27 06:48:42;;;;;;;4.60;4.40;;;16.20;99.90;;;;;;4996846;28;20491;-67
2022/04/27 06:51:08;;;;;;;5.43;5.13;;;16.20;99.90;;;;;;4996908;28;20493;-68
2022/04/27 06:53:35;;;;;;;5.07;4.67;;;15.00;99.90;;;;;;4997316;28;20470;-67
2022/04/27 06:56:02;;;;;;;5.07;4.60;;;14.80;99.90;;;;;;4997383;28;20470;-69
2022/04/27 06:58:29;;;;;;;4.27;4.07;;;15.20;99.90;;;;;;4997117;28;20482;-67
2022/04/27 07:00:55;;;;;;;6.43;5.93;;;15.10;99.90;;;;;;4995992;28;20491;-68
2022/04/27 07:03:22;;;;;;;5.43;5.00;;;15.00;99.90;;;;;;4996652;28;20482;-68
2022/04/27 07:05:50;;;;;;;5.30;5.00;;;14.80;99.90;;;;;;4995707;28;20493;-69
2022/04/27 07:08:17;;;;;;;5.03;4.73;;;14.80;99.90;;;;;;4993916;28;20856;-70
2022/04/27 07:10:44;;;;;;;5.63;4.57;;;15.20;99.90;;;;;;4993582;28;21007;-69
2022/04/27 07:13:10;;;;;;;6.83;6.17;;;15.30;99.90;;;;;;4993938;28;20928;-68
2022/04/27 07:15:37;;;;;;;5.73;5.33;;;15.00;99.90;;;;;;4993805;28;20959;-69
2022/04/27 07:18:04;;;;;;;5.53;5.03;;;14.50;99.90;;;;;;4992986;28;20470;-69
2022/04/27 07:20:31;;;;;;;5.87;5.10;;;14.10;99.90;;;;;;4993562;28;20470;-69
2022/04/27 07:22:59;;;;;;;5.20;4.83;;;13.90;99.90;;;;;;4993854;28;20473;-69
2022/04/27 07:25:25;;;;;;;5.50;5.10;;;13.60;99.90;;;;;;4993829;28;20542;-69
2022/04/27 07:27:52;;;;;;;5.50;5.20;;;13.50;99.90;;;;;;4993916;28;20944;-69
2022/04/27 07:30:20;;;;;;;9.30;5.47;;;14.00;99.90;;;;;;4993227;28;20490;-69
2022/04/27 07:32:47;;;;;;;5.37;4.83;;;14.30;99.90;;;;;;4993743;28;20617;-70
2022/04/27 07:35:13;;;;;;;5.63;5.27;;;14.50;99.90;;;;;;4987802;28;20466;-71
2022/04/27 07:37:40;;;;;;;8.00;5.53;;;14.60;99.90;;;;;;4987375;28;20586;-70
2022/04/27 07:40:13;;;;;;;5.00;4.50;;;14.60;99.90;;;;;;4994772;28;20967;-70
2022/04/27 07:42:40;;;;;;;6.27;5.03;;;14.40;99.90;;;;;;4994730;28;20467;-70
2022/04/27 07:45:08;;;;;;;6.37;5.77;;;14.50;99.90;;;;;;4995399;28;20499;-69
2022/04/27 07:47:41;;;;;;;10.53;5.57;;;14.40;99.90;;;;;;4994845;28;20469;-68
2022/04/27 07:50:10;;;;;;;5.77;5.07;;;14.10;99.90;;;;;;4995237;28;20491;-68
2022/04/27 07:52:37;;;;;;;11.37;5.00;;;13.90;99.90;;;;;;4995491;28;20542;-68
2022/04/27 07:55:04;;;;;;;6.27;5.00;;;13.70;99.90;;;;;;4995954;28;20808;-69
2022/04/27 07:57:33;;;;;;;6.90;4.37;;;13.50;99.90;;;;;;4995645;28;20840;-69
2022/04/27 08:00:00;;;;;;;5.90;5.40;;;13.50;99.90;;;;;;4994179;28;20788;-69
2022/04/27 08:02:27;;;;;;;7.03;5.60;;;13.70;99.90;;;;;;4992684;28;21010;-68
2022/04/27 08:04:54;;;;;;;8.60;5.37;;;13.80;99.90;;;;;;4993621;28;20462;-68
2022/04/27 08:07:20;;;;;;;4.97;4.67;;;13.80;99.90;;;;;;4993247;28;20462;-68
2022/04/27 08:09:47;;;;;;;6.40;5.50;;;13.80;99.90;;;;;;4992331;28;20529;-68
2022/04/27 08:12:14;;;;;;;7.20;5.50;;;13.80;99.90;;;;;;4992805;28;20498;-67
2022/04/27 08:14:42;;;;;;;8.70;5.57;;;13.70;99.90;;;;;;4992801;28;20467;-68
2022/04/27 08:17:09;;;;;;;6.00;4.30;;;13.60;99.90;;;;;;4991594;28;20470;-69
2022/04/27 08:19:35;;;;;;;5.60;5.10;;;13.70;99.90;;;;;;4992327;28;20455;-69
2022/04/27 08:22:02;;;;;;;5.50;5.00;;;13.70;99.90;;;;;;4992598;28;20491;-68
2022/04/27 08:24:29;;;;;;;5.33;4.93;;;13.70;99.90;;;;;;4986591;28;20463;-69
2022/04/27 08:26:56;;;;;;;6.97;4.83;;;13.60;99.90;;;;;;4992714;28;20459;-68
2022/04/27 08:29:22;;;;;;;7.00;5.30;;;13.60;99.90;;;;;;4992878;28;20494;-67
2022/04/27 08:31:52;;;;;;;4.50;4.20;;;13.70;99.90;;;;;;4991676;28;20528;-69
2022/04/27 08:34:19;;;;;;;6.53;5.83;;;13.50;99.90;;;;;;4992572;28;20502;-68
2022/04/27 08:36:46;;;;;;;4.97;4.60;;;13.60;99.90;;;;;;4992321;28;20467;-68
2022/04/27 08:39:13;;;;;;;5.30;4.90;;;13.50;99.90;;;;;;4992531;28;20474;-68
2022/04/27 08:41:40;;;;;;;5.10;4.80;;;13.40;99.90;;;;;;4991942;28;20570;-68
2022/04/27 08:44:08;;;;;;;6.03;5.47;;;13.60;99.90;;;;;;4992433;28;20776;-68
2022/04/27 08:46:36;;;;;;;5.83;5.30;;;13.70;99.90;;;;;;4991859;28;20462;-67
2022/04/27 08:49:10;;;;;;;6.63;5.30;;;13.80;99.90;;;;;;4991735;28;20519;-67
2022/04/27 08:51:38;;;;;;;5.70;4.90;;;14.10;99.90;;;;;;4991352;28;20984;-67
2022/04/27 08:54:05;;;;;;;9.63;5.53;;;14.00;99.90;;;;;;4992229;28;20466;-67
2022/04/27 08:56:34;;;;;;;7.57;6.87;;;14.10;99.90;;;;;;4992280;28;20466;-68
2022/04/27 08:59:02;;;;;;;6.40;5.77;;;14.30;99.90;;;;;;4991971;28;20468;-68
2022/04/27 09:01:29;;;;;;;9.27;6.00;;;14.40;99.90;;;;;;4990855;28;20491;-68
2022/04/27 09:04:14;;;;;;;5.90;5.27;;;14.30;99.90;;;;;;4991373;28;20463;-69
2022/04/27 09:06:41;;;;;;;6.90;5.97;;;14.30;99.90;;;;;;4992494;28;20467;-67
2022/04/27 09:09:10;;;;;;;5.83;5.37;;;14.40;99.90;;;;;;4992973;28;20598;-68
2022/04/27 09:11:37;;;;;;;5.63;5.13;;;14.60;99.90;;;;;;4992811;28;20487;-68
2022/04/27 09:14:06;;;;;;;8.07;5.50;;;14.60;99.90;;;;;;4993736;28;20497;-68
2022/04/27 09:20:46;;;;;;;7.30;5.03;;;14.60;99.90;;;;;;4992644;28;20463;-69
2022/04/27 09:22:14;;;;;;;8.10;5.47;;;14.50;99.90;;;;;;4935895;28;20548;-68
2022/04/27 09:24:50;;;;;;;5.47;5.07;;;14.40;99.90;;;;;;4991791;28;20529;-68
2022/04/27 09:27:19;;;;;;;9.27;5.93;;;14.40;99.90;;;;;;4991609;28;20965;-68
2022/04/27 09:29:56;;;;;;;5.03;4.63;;;14.10;99.90;;;;;;4990442;28;20522;-68
2022/04/27 09:32:23;;;;;;;5.43;5.03;;;14.00;99.90;;;;;;4991113;28;21055;-71
2022/04/27 09:34:52;;;;;;;9.63;5.17;;;14.00;99.90;;;;;;4991756;28;20495;-69
2022/04/27 09:37:20;;;;;;;7.50;6.03;;;14.00;99.90;;;;;;4991655;28;20466;-71
2022/04/27 09:39:59;;;;;;;6.20;5.57;;;14.00;99.90;;;;;;4991778;28;20463;-69
2022/04/27 09:42:30;;;;;;;6.90;5.57;;;13.90;99.90;;;;;;4992023;28;20494;-69
2022/04/27 09:45:14;;;;;;;5.10;4.70;;;14.00;99.90;;;;;;4992188;28;20812;-69
2022/04/27 09:47:45;;;;;;;11.03;5.90;;;14.00;99.90;;;;;;4990125;28;20585;-69
2022/04/27 09:50:13;;;;;;;6.97;5.37;;;14.00;99.90;;;;;;4987901;28;20537;-69
2022/04/27 09:52:41;;;;;;;6.40;5.80;;;13.80;99.90;;;;;;4972711;28;20467;-70
2022/04/27 09:55:08;;;;;;;6.17;5.50;;;13.70;99.90;;;;;;4972770;28;20490;-70
2022/04/27 09:57:39;;;;;;;6.50;5.77;;;13.80;99.90;;;;;;4972051;28;20476;-70
2022/04/27 10:00:07;;;;;;;5.73;5.30;;;13.80;99.90;;;;;;4971821;28;20467;-69
2022/04/27 10:02:34;;;;;;;5.80;5.30;;;13.90;99.90;;;;;;4970146;28;21032;-69
2022/04/27 10:05:02;;;;;;;6.20;5.70;;;13.80;99.90;;;;;;4972518;28;20468;-70
2022/04/27 10:07:32;;;;;;;5.80;5.23;;;13.90;99.90;;;;;;4972046;28;20468;-69
2022/04/27 10:09:59;;;;;;;5.00;4.70;;;14.10;99.90;;;;;;4971956;28;20487;-70
2022/04/27 10:12:26;;;;;;;5.40;5.03;;;14.20;99.90;;;;;;4972508;28;20496;-69
2022/04/27 10:14:53;;;;;;;4.67;4.47;;;14.30;99.90;;;;;;4972051;28;20460;-70
2022/04/27 10:17:19;;;;;;;5.87;5.37;;;14.50;99.90;;;;;;4977123;23;20563;-69
2022/04/27 10:19:47;;;;;;;7.70;6.00;;;14.50;99.90;;;;;;4952294;28;20464;-69
2022/04/27 10:22:27;;;;;;;5.40;5.00;;;14.60;99.90;;;;;;4952445;28;20468;-69
2022/04/27 10:24:57;;;;;;;5.60;5.20;;;14.80;99.90;;;;;;4965261;28;20977;-69
2022/04/27 10:27:26;;;;;;;5.77;5.33;;;14.90;99.90;;;;;;4971106;28;20479;-69
2022/04/27 10:29:58;;;;;;;10.63;6.07;;;14.90;99.90;;;;;;4971386;28;20581;-69
2022/04/27 10:32:39;;;;;;;6.60;5.30;;;15.10;99.90;;;;;;4970814;28;20468;-69
2022/04/27 10:35:21;;;;;;;6.63;5.93;;;15.30;99.90;;;;;;4972037;28;20576;-70
2022/04/27 10:37:50;;;;;;;6.93;6.43;;;15.40;99.90;;;;;;4971640;28;20464;-70
2022/04/27 10:40:31;;;;;;;8.00;6.20;;;15.50;99.90;;;;;;4971708;28;20547;-70
2022/04/27 10:43:12;;;;;;;7.30;5.37;;;15.40;99.90;;;;;;4975406;28;20497;-69
2022/04/27 10:45:40;;;;;;;6.27;5.63;;;15.40;99.90;;;;;;4974992;28;20814;-69
2022/04/27 10:48:08;;;;;;;6.50;5.83;;;15.50;99.90;;;;;;4974121;28;20467;-70
2022/04/27 10:50:36;;;;;;;7.00;5.87;;;15.60;99.90;;;;;;4974435;28;20550;-69
2022/04/27 10:53:17;;;;;;;5.63;5.23;;;15.70;99.90;;;;;;4975198;28;20470;-69
2022/04/27 10:55:53;;;;;;;6.50;5.30;;;15.80;99.90;;;;;;4975183;28;20495;-70
2022/04/27 10:58:26;;;;;;;7.90;5.93;;;16.00;99.90;;;;;;4974815;28;20464;-69
2022/04/27 11:01:31;;;;;;;5.80;5.40;;;15.90;99.90;;;;;;4974042;28;20554;-69
2022/04/27 11:04:06;;;;;;;6.43;5.83;;;15.70;99.90;;;;;;4974377;28;20499;-69
2022/04/27 11:07:25;;;;;;;6.47;5.77;;;15.90;99.90;;;;;;4974675;28;20489;-69
2022/04/27 11:10:11;;;;;;;7.60;5.10;;;16.10;99.90;;;;;;4974221;28;20491;-68
2022/04/27 11:12:40;;;;;;;7.50;6.90;;;16.30;99.90;;;;;;4969685;28;20464;-68
2022/04/27 11:15:08;;;;;;;8.30;7.50;;;16.20;99.90;;;;;;4974213;28;20495;-69
2022/04/27 11:17:35;;;;;;;6.57;6.17;;;16.10;99.90;;;;;;4973478;28;20542;-68
2022/04/27 11:20:03;;;;;;;11.23;8.53;;;16.10;99.90;;;;;;4974107;28;20821;-71
2022/04/27 11:22:37;;;;;;;7.07;6.37;;;16.20;99.90;;;;;;4974352;28;20955;-68
2022/04/27 11:25:07;;;;;;;5.90;5.50;;;16.20;99.90;;;;;;4974532;28;20460;-68
2022/04/27 11:27:35;;;;;;;6.77;6.17;;;16.20;99.90;;;;;;4974675;28;20602;-69
2022/04/27 11:30:06;;;;;;;7.07;6.40;;;16.30;99.90;;;;;;4973948;28;20498;-69
2022/04/27 11:32:34;;;;;;;8.73;6.37;;;16.40;99.90;;;;;;4973443;28;20980;-69
2022/04/27 11:35:01;;;;;;;6.60;6.20;;;16.40;99.90;;;;;;4974072;28;21019;-69
2022/04/27 11:37:28;;;;;;;6.60;6.10;;;16.30;99.90;;;;;;4973919;28;20495;-69
2022/04/27 11:40:10;;;;;;;7.43;6.83;;;16.30;99.90;;;;;;4973565;28;20466;-69
2022/04/27 11:42:42;;;;;;;10.60;6.80;;;16.10;99.90;;;;;;4973924;28;20467;-68
2022/04/27 11:45:12;;;;;;;7.60;7.00;;;16.10;99.90;;;;;;4974369;28;20463;-69
2022/04/27 11:47:39;;;;;;;7.63;6.73;;;16.20;99.90;;;;;;4972148;28;20500;-68
2022/04/27 11:50:07;;;;;;;6.20;5.80;;;16.40;99.90;;;;;;4956328;28;20991;-69
2022/04/27 11:52:36;;;;;;;6.33;5.83;;;16.60;99.90;;;;;;4954324;28;20466;-68
2022/04/27 11:55:09;;;;;;;6.53;5.93;;;16.70;99.90;;;;;;4954694;28;20471;-70
2022/04/27 11:57:36;;;;;;;10.00;5.80;;;16.60;99.90;;;;;;4954356;28;20485;-69
2022/04/27 12:00:04;;;;;;;5.50;5.10;;;16.60;99.90;;;;;;4954109;28;20475;-69
2022/04/27 12:02:34;;;;;;;6.00;5.40;;;16.60;99.90;;;;;;4953607;28;20465;-69
2022/04/27 12:05:02;;;;;;;5.17;4.87;;;16.70;99.90;;;;;;4954445;28;20469;-70
2022/04/27 12:07:35;;;;;;;6.17;5.60;;;16.70;99.90;;;;;;4954101;28;20491;-69
2022/04/27 12:10:04;;;;;;;6.03;5.57;;;16.50;99.90;;;;;;4954189;28;20524;-69
2022/04/27 12:12:32;;;;;;;5.77;5.30;;;16.40;99.90;;;;;;4954267;28;20491;-69
2022/04/27 12:15:05;;;;;;;5.80;5.40;;;16.20;99.90;;;;;;4953988;28;20468;-69
2022/04/27 12:17:50;;;;;;;5.03;4.57;;;16.10;99.90;;;;;;4952946;28;20964;-69
2022/04/27 12:20:36;;;;;;;4.37;4.17;;;16.10;99.90;;;;;;4952552;28;20530;-70
2022/04/27 12:23:05;;;;;;;10.47;5.00;;;16.30;99.90;;;;;;4949936;28;20489;-71
2022/04/27 12:25:37;;;;;;;4.80;4.40;;;16.40;99.90;;;;;;4963427;28;20465;-71
2022/04/27 12:28:06;;;;;;;6.20;4.73;;;16.40;99.90;;;;;;4972923;28;20530;-70
2022/04/27 12:30:39;;;;;;;5.43;5.03;;;16.50;99.60;;;;;;4973008;28;20495;-71
2022/04/27 12:33:08;;;;;;;4.73;4.33;;;16.70;99.20;;;;;;4972133;28;20864;-71
2022/04/27 12:38:19;;;;;;;5.10;4.30;;;16.70;99.40;;;;;;4972905;28;20466;-71
2022/04/27 12:40:46;;;;;;;5.53;5.07;;;16.60;99.00;;;;;;4972264;28;20694;-70
2022/04/27 12:43:14;;;;;;;4.53;4.10;;;16.60;99.30;;;;;;4973125;28;20471;-70
2022/04/27 12:46:02;;;;;;;4.67;4.47;;;16.60;99.10;;;;;;4973194;28;20944;-71
2022/04/27 12:48:31;;;;;;;4.30;4.10;;;16.50;98.20;;;;;;4972147;28;20471;-70
2022/04/27 12:50:58;;;;;;;4.40;4.20;;;16.50;98.30;;;;;;4971657;28;20838;-70
2022/04/27 12:53:25;;;;;;;4.47;3.50;;;16.50;98.00;;;;;;4972641;28;20468;-71
2022/04/27 12:56:03;;;;;;;5.10;4.07;;;16.40;98.10;;;;;;4973147;28;20494;-71
2022/04/27 12:58:30;;;;;;;6.00;3.93;;;16.50;98.10;;;;;;4973002;28;20469;-71
2022/04/27 13:00:57;;;;;;;4.33;3.93;;;16.50;98.30;;;;;;4971740;28;20487;-70
2022/04/27 13:03:24;;;;;;;4.73;3.93;;;16.40;98.20;;;;;;4972084;28;20538;-70
2022/04/27 13:05:52;;;;;;;4.20;3.93;;;16.40;98.40;;;;;;4971873;28;20488;-70
2022/04/27 13:08:19;;;;;;;5.17;4.43;;;16.60;98.40;;;;;;4972512;28;20468;-71
2022/04/27 13:13:27;;;;;;;4.13;3.93;;;16.30;97.70;;;;;;4934983;28;20479;-71
2022/04/27 13:15:55;;;;;;;4.03;3.87;;;16.20;98.10;;;;;;4952887;28;20488;-70
2022/04/27 13:18:21;;;;;;;5.13;4.73;;;16.20;98.30;;;;;;4952518;28;20885;-71
2022/04/27 13:20:50;;;;;;;5.27;4.87;;;16.20;98.00;;;;;;4952516;28;20499;-70
2022/04/27 13:23:18;;;;;;;4.70;4.33;;;16.10;97.80;;;;;;4953211;28;20464;-71
2022/04/27 13:25:46;;;;;;;4.90;4.50;;;16.10;97.40;;;;;;4953032;28;20515;-71
2022/04/27 13:28:13;;;;;;;5.97;4.27;;;16.10;97.70;;;;;;4953253;28;20472;-70
2022/04/27 13:30:40;;;;;;;4.27;3.87;;;16.10;97.80;;;;;;4952568;28;20476;-71
2022/04/27 13:33:07;;;;;;;5.07;4.77;;;16.20;98.30;;;;;;4952096;28;20551;-70
2022/04/27 13:35:34;;;;;;;5.27;4.77;;;16.20;97.50;;;;;;4952740;28;20468;-70
2022/04/27 13:38:01;;;;;;;5.97;5.30;;;16.20;96.70;;;;;;4952905;28;20502;-70
2022/04/27 13:40:29;;;;;;;4.90;4.40;;;16.20;97.30;;;;;;4952963;28;20488;-71
2022/04/27 13:42:56;;;;;;;4.87;4.47;;;16.30;97.60;;;;;;4953463;28;20464;-71
2022/04/27 13:45:22;;;;;;;5.43;5.07;;;16.10;96.90;;;;;;4953389;28;20475;-70
2022/04/27 13:47:49;;;;;;;4.50;4.10;;;16.00;97.70;;;;;;4950319;28;20472;-71
2022/04/27 13:50:16;;;;;;;4.50;4.10;;;16.10;97.80;;;;;;4957584;28;20459;-72
2022/04/27 13:52:43;;;;;;;5.33;4.73;;;16.10;97.40;;;;;;4971978;28;20470;-71
2022/04/27 13:55:11;;;;;;;5.63;4.47;;;16.20;97.60;;;;;;4972295;28;20860;-71
2022/04/27 13:57:39;;;;;;;4.97;4.43;;;16.20;97.70;;;;;;4971889;28;20564;-71
2022/04/27 14:00:07;;;;;;;4.03;3.83;;;16.20;97.60;;;;;;4971685;28;20471;-72
2022/04/27 14:02:34;;;;;;;4.10;3.90;;;16.10;96.70;;;;;;4970990;28;20571;-72
2022/04/27 14:05:01;;;;;;;4.13;3.73;;;16.10;97.10;;;;;;4972010;28;20472;-73
2022/04/27 14:07:28;;;;;;;4.20;3.90;;;16.10;97.30;;;;;;4971813;28;20527;-72
2022/04/27 14:09:55;;;;;;;4.93;4.50;;;16.20;97.70;;;;;;4971468;28;20480;-72
2022/04/27 14:15:08;;;;;;;4.17;3.97;;;16.10;97.10;;;;;;4972094;28;20872;-72
2022/04/27 14:20:19;;;;;;;3.83;3.63;;;16.20;96.60;;;;;;4975357;28;20466;-72
2022/04/27 14:22:45;;;;;;;4.97;4.27;;;16.20;96.70;;;;;;4971636;28;20479;-72
2022/04/27 14:25:12;;;;;;;4.27;4.03;;;16.10;96.50;;;;;;4960800;28;20476;-73
2022/04/27 14:27:39;;;;;;;4.47;3.90;;;16.00;96.80;;;;;;4956067;28;20492;-72
2022/04/27 14:30:10;;;;;;;5.33;4.83;;;16.00;97.20;;;;;;4955584;28;20846;-71
2022/04/27 14:32:38;;;;;;;4.10;3.80;;;15.90;96.90;;;;;;4955296;28;20795;-73
2022/04/27 14:35:05;;;;;;;4.00;3.80;;;16.00;97.40;;;;;;4955963;28;20465;-74
2022/04/27 14:37:32;;;;;;;4.80;4.50;;;16.00;96.80;;;;;;4955782;28;20527;-74
2022/04/27 14:39:58;;;;;;;4.67;4.17;;;15.90;97.10;;;;;;4955338;28;20473;-74
2022/04/27 14:42:25;;;;;;;4.80;4.47;;;15.90;97.30;;;;;;4956101;28;20996;-73
2022/04/27 14:44:51;;;;;;;3.90;3.50;;;15.90;97.30;;;;;;4956053;28;20464;-71
2022/04/27 14:47:19;;;;;;;4.87;4.17;;;15.90;96.90;;;;;;4954726;28;20488;-70
2022/04/27 14:49:46;;;;;;;4.73;4.43;;;15.90;96.80;;;;;;4954983;28;20480;-70
2022/04/27 14:52:13;;;;;;;4.57;4.17;;;15.90;96.50;;;;;;4955515;28;20464;-71
2022/04/27 14:54:40;;;;;;;4.73;4.53;;;15.90;96.60;;;;;;4955825;28;20516;-70
2022/04/27 14:57:07;;;;;;;4.37;4.07;;;16.00;96.70;;;;;;4955428;28;20999;-72
2022/04/27 14:59:33;;;;;;;4.60;3.83;;;16.00;96.60;;;;;;4955539;28;20468;-71
2022/04/27 15:02:00;;;;;;;4.40;4.10;;;15.90;96.50;;;;;;4954387;28;20472;-71
2022/04/27 15:04:29;;;;;;;4.83;4.43;;;15.90;96.60;;;;;;4955408;28;20883;-72
2022/04/27 15:06:55;;;;;;;4.90;4.40;;;15.90;96.10;;;;;;4955148;28;20499;-70
2022/04/27 15:09:22;;;;;;;5.07;4.57;;;15.90;96.10;;;;;;4955159;28;20510;-70
2022/04/27 15:11:49;;;;;;;4.30;4.00;;;15.90;96.30;;;;;;4954884;28;20467;-71
2022/04/27 15:14:15;;;;;;;7.17;5.97;;;15.90;96.00;;;;;;4968784;28;20470;-70
2022/04/27 15:16:42;;;;;;;4.23;4.00;;;16.00;96.30;;;;;;4974089;28;20495;-70
2022/04/27 15:19:09;;;;;;;5.77;5.23;;;16.10;96.20;;;;;;4974007;28;20495;-71
2022/04/27 15:24:21;;;;;;;4.90;4.27;;;16.00;95.40;;;;;;4974778;28;20494;-70
2022/04/27 15:27:03;;;;;;;4.67;4.13;;;16.00;95.30;;;;;;4973895;28;20491;-70
2022/04/27 15:29:30;;;;;;;5.87;4.67;;;16.10;95.20;;;;;;4974258;28;20470;-70
2022/04/27 15:31:57;;;;;;;5.13;4.73;;;16.10;94.90;;;;;;4973406;28;20491;-70
2022/04/27 15:34:24;;;;;;;4.00;3.70;;;16.10;95.20;;;;;;4974321;28;20463;-70
2022/04/27 15:36:52;;;;;;;4.40;4.17;;;16.20;95.40;;;;;;4973862;28;20981;-70
2022/04/27 15:39:19;;;;;;;5.10;4.33;;;16.10;95.40;;;;;;4974285;28;20471;-70
2022/04/27 15:41:45;;;;;;;4.77;4.37;;;16.10;95.30;;;;;;4973591;28;20501;-70
2022/04/27 15:44:12;;;;;;;5.13;4.60;;;16.20;95.70;;;;;;4973634;28;20478;-72
2022/04/27 15:46:41;;;;;;;5.20;4.80;;;16.20;95.20;;;;;;4973734;28;20495;-70
2022/04/27 15:49:08;;;;;;;4.27;4.07;;;16.20;94.60;;;;;;4956151;28;20465;-71
2022/04/27 15:51:36;;;;;;;5.93;4.87;;;16.10;94.50;;;;;;4954511;28;20547;-71
2022/04/27 15:54:05;;;;;;;4.43;4.13;;;16.10;94.80;;;;;;4954958;28;20479;-70
2022/04/27 15:56:32;;;;;;;4.57;4.20;;;16.00;94.80;;;;;;4954532;28;20489;-71
2022/04/27 15:59:02;;;;;;;5.60;4.50;;;16.00;94.80;;;;;;4954645;28;20461;-71
2022/04/27 16:01:29;;;;;;;6.00;4.37;;;16.10;94.80;;;;;;4953789;28;20827;-71
2022/04/27 16:03:56;;;;;;;4.53;4.23;;;16.00;94.70;;;;;;4954075;28;20469;-71
2022/04/27 16:06:23;;;;;;;6.57;5.97;;;16.00;94.90;;;;;;4954565;28;20492;-71
2022/04/27 16:08:50;;;;;;;4.47;4.17;;;16.00;94.80;;;;;;4954550;28;20469;-71
2022/04/27 16:11:18;;;;;;;6.20;5.70;;;16.00;95.10;;;;;;4953828;28;20546;-71
2022/04/27 16:13:45;;;;;;;6.10;5.60;;;16.00;95.10;;;;;;4954655;28;20873;-72
2022/04/27 16:16:12;;;;;;;6.80;6.20;;;15.90;94.50;;;;;;4971355;23;21943;-70
2022/04/27 16:18:39;;;;;;;7.23;4.83;;;16.00;94.70;;;;;;4976880;28;20456;-70
2022/04/27 16:23:50;;;;;;;9.13;5.50;;;15.90;94.90;;;;;;4976082;28;20458;-71
2022/04/27 16:26:19;;;;;;;5.80;5.23;;;15.80;94.90;;;;;;4975743;28;21023;-71
2022/04/27 16:28:45;;;;;;;5.87;5.10;;;15.90;95.10;;;;;;4974911;28;20510;-71
2022/04/27 16:31:12;;;;;;;5.53;5.03;;;15.90;95.20;;;;;;4974741;28;20963;-71
2022/04/27 16:33:39;;;;;;;6.77;6.10;;;15.90;94.80;;;;;;4975111;28;20526;-70
2022/04/27 16:36:06;;;;;;;5.50;5.00;;;15.80;94.90;;;;;;4976482;28;21085;-71
2022/04/27 16:38:33;;;;;;;4.67;4.27;;;15.80;95.00;;;;;;4974308;28;20819;-71
2022/04/27 16:41:00;;;;;;;5.73;5.33;;;15.70;94.70;;;;;;4974115;28;20460;-71
2022/04/27 16:43:28;;;;;;;6.60;6.10;;;15.60;94.70;;;;;;4975779;28;20468;-68
2022/04/27 16:45:55;;;;;;;6.30;5.70;;;15.60;94.80;;;;;;4974211;28;20476;-70
2022/04/27 16:48:21;;;;;;;9.93;6.83;;;15.50;95.30;;;;;;4974167;28;20467;-71
2022/04/27 16:50:48;;;;;;;5.70;5.20;;;15.60;94.90;;;;;;4974455;28;20464;-69
2022/04/27 16:53:15;;;;;;;5.13;4.73;;;15.50;95.00;;;;;;4976119;28;20559;-70
2022/04/27 16:55:41;;;;;;;5.47;5.07;;;15.50;95.00;;;;;;4975544;28;20474;-70
2022/04/27 16:58:08;;;;;;;4.43;4.20;;;15.40;95.00;;;;;;4974615;28;20475;-70
2022/04/27 17:00:56;;;;;;;5.10;4.70;;;15.40;95.30;;;;;;4974971;28;20459;-70
2022/04/27 17:03:24;;;;;;;5.00;4.60;;;15.40;95.00;;;;;;4973170;28;20527;-69
2022/04/27 17:05:52;;;;;;;5.20;4.73;;;15.30;95.00;;;;;;4973758;28;20577;-69
2022/04/27 17:08:18;;;;;;;4.33;3.63;;;15.10;94.90;;;;;;4973563;28;20474;-69
2022/04/27 17:10:45;;;;;;;5.13;4.70;;;15.00;95.30;;;;;;4972150;28;20971;-69
2022/04/27 17:13:12;;;;;;;4.37;4.00;;;15.00;95.60;;;;;;4978080;28;20467;-70
2022/04/27 17:15:40;;;;;;;7.60;4.83;;;14.90;95.80;;;;;;4992097;28;20495;-70
2022/04/27 17:18:08;;;;;;;4.27;4.03;;;14.80;96.00;;;;;;4991021;28;20499;-70
2022/04/27 17:20:35;;;;;;;5.27;4.87;;;14.70;96.00;;;;;;4994325;28;20490;-70